createdAt,value
2023-03-30T00:01:05.233Z,100849.69
2023-03-30T00:03:33.336Z,100844.44
2023-03-30T00:06:05.312Z,100837.47
2023-03-30T00:08:33.245Z,100827.03
2023-03-30T00:11:13.309Z,100830.50
2023-03-30T00:13:40.513Z,100819.22
2023-03-30T00:16:11.349Z,100816.63
2023-03-30T00:18:39.463Z,100818.34
2023-03-30T00:21:09.481Z,100813.13
2023-03-30T00:23:36.615Z,100804.44
2023-03-30T00:26:04.124Z,100802.69
2023-03-30T00:28:31.702Z,100798.34
2023-03-30T00:30:58.876Z,100794.88
2023-03-30T00:33:41.345Z,100788.78
2023-03-30T00:36:12.567Z,100785.34
2023-03-30T00:38:40.432Z,100788.78
2023-03-30T00:41:07.747Z,100781.84
2023-03-30T00:43:34.783Z,100785.34
2023-03-30T00:46:01.959Z,100769.69
2023-03-30T00:48:36.814Z,100764.50
2023-03-30T00:51:09.751Z,100761.03
2023-03-30T00:53:48.195Z,100759.28
2023-03-30T00:56:19.908Z,100767.09
2023-03-30T00:58:47.102Z,100764.50
2023-03-30T01:01:18.899Z,100758.41
2023-03-30T01:03:48.264Z,100756.69
2023-03-30T01:06:18.052Z,100748.84
2023-03-30T01:08:45.420Z,100749.72
2023-03-30T01:11:12.471Z,100741.03
2023-03-30T01:13:45.601Z,100735.81
2023-03-30T01:16:41.714Z,100731.47
2023-03-30T01:19:29.388Z,100729.72
2023-03-30T01:22:41.381Z,100724.53
2023-03-30T01:25:29.004Z,100725.38
2023-03-30T01:28:44.346Z,100716.69
2023-03-30T01:31:35.158Z,100719.31
2023-03-30T01:35:02.436Z,100707.97
2023-03-30T01:38:01.014Z,100701.91
2023-03-30T01:40:43.087Z,100696.72
2023-03-30T01:43:20.998Z,100688.00
2023-03-30T01:45:57.429Z,100688.03
2023-03-30T01:48:51.820Z,100691.50
2023-03-30T01:51:24.050Z,100674.09
2023-03-30T01:54:07.196Z,100678.47
2023-03-30T01:56:47.153Z,100667.16
2023-03-30T01:59:26.338Z,100678.44
2023-03-30T02:02:02.669Z,100686.25
2023-03-30T02:04:36.171Z,100687.16
2023-03-30T02:07:10.221Z,100685.41
2023-03-30T02:09:40.351Z,100689.78
2023-03-30T02:12:10.426Z,100693.25
2023-03-30T02:14:41.014Z,100688.88
2023-03-30T02:17:19.703Z,100681.94
2023-03-30T02:19:47.398Z,100679.34
2023-03-30T02:22:18.499Z,100681.94
2023-03-30T02:24:48.650Z,100684.53
2023-03-30T02:27:17.905Z,100674.13
2023-03-30T02:29:45.996Z,100665.41
2023-03-30T02:32:52.812Z,100672.38
2023-03-30T02:35:33.923Z,100659.34
2023-03-30T02:38:34.322Z,100650.66
2023-03-30T02:41:32.482Z,100636.75
2023-03-30T02:44:31.905Z,100642.84
2023-03-30T02:47:09.214Z,100638.47
2023-03-30T02:50:02.422Z,100629.81
2023-03-30T02:53:06.219Z,100619.38
2023-03-30T02:56:03.978Z,100607.22
2023-03-30T02:59:08.696Z,100600.22
2023-03-30T03:01:59.251Z,100591.56
2023-03-30T03:04:28.863Z,100566.38
2023-03-30T03:07:14.701Z,100579.38
2023-03-30T03:09:42.206Z,100575.94
2023-03-30T03:12:09.584Z,100568.09
2023-03-30T03:14:39.167Z,100562.88
2023-03-30T03:17:06.465Z,100551.59
2023-03-30T03:19:38.181Z,100545.50
2023-03-30T03:22:05.680Z,100539.44
2023-03-30T03:24:39.102Z,100547.22
2023-03-30T03:27:30.131Z,100544.63
2023-03-30T03:30:12.918Z,100544.66
2023-03-30T03:32:45.980Z,100536.81
2023-03-30T03:35:13.088Z,100532.47
2023-03-30T03:37:40.006Z,100530.75
2023-03-30T03:40:08.180Z,100522.91
2023-03-30T03:42:35.964Z,100516.84
2023-03-30T03:45:09.806Z,100529.88
2023-03-30T03:47:47.443Z,100526.41
2023-03-30T03:50:15.236Z,100526.41
2023-03-30T03:52:42.140Z,100510.78
2023-03-30T03:55:09.379Z,100517.72
2023-03-30T03:57:39.348Z,100508.16
2023-03-30T04:00:15.546Z,100510.75
2023-03-30T04:02:45.581Z,100508.16
2023-03-30T04:05:13.280Z,100509.91
2023-03-30T04:07:40.341Z,100509.91
2023-03-30T04:10:08.108Z,100518.56
2023-03-30T04:12:41.940Z,100513.38
2023-03-30T04:15:20.679Z,100518.56
2023-03-30T04:18:02.053Z,100509.00
2023-03-30T04:20:51.898Z,100509.88
2023-03-30T04:23:35.694Z,100505.53
2023-03-30T04:26:21.031Z,100503.78
2023-03-30T04:28:47.936Z,100506.38
2023-03-30T04:31:50.896Z,100505.50
2023-03-30T04:34:48.549Z,100495.97
2023-03-30T04:37:52.310Z,100484.66
2023-03-30T04:40:30.938Z,100488.97
2023-03-30T04:43:05.868Z,100479.41
2023-03-30T04:46:01.859Z,100469.88
2023-03-30T04:48:54.235Z,100475.09
2023-03-30T04:51:39.612Z,100471.59
2023-03-30T04:54:24.998Z,100455.97
2023-03-30T04:57:14.085Z,100451.66
2023-03-30T04:59:59.683Z,100452.50
2023-03-30T05:02:52.592Z,100461.19
2023-03-30T05:05:28.205Z,100462.06
2023-03-30T05:08:13.374Z,100434.25
2023-03-30T05:11:08.916Z,100424.72
2023-03-30T05:13:57.049Z,100429.91
2023-03-30T05:16:50.199Z,100409.97
2023-03-30T05:19:43.491Z,100424.72
2023-03-30T05:22:19.513Z,100413.44
2023-03-30T05:24:54.672Z,100403.84
2023-03-30T05:27:31.462Z,100407.34
2023-03-30T05:30:16.787Z,100406.50
2023-03-30T05:33:22.263Z,100396.94
2023-03-30T05:36:18.769Z,100386.53
2023-03-30T05:39:00.190Z,100382.19
2023-03-30T05:41:50.801Z,100376.16
2023-03-30T05:44:29.109Z,100379.63
2023-03-30T05:47:18.808Z,100379.59
2023-03-30T05:50:00.920Z,100376.13
2023-03-30T05:52:48.044Z,100377.00
2023-03-30T05:55:48.041Z,100369.16
2023-03-30T05:58:33.645Z,100390.88
2023-03-30T06:01:09.428Z,100357.88
2023-03-30T06:03:40.059Z,100365.66
2023-03-30T06:06:09.579Z,100361.31
2023-03-30T06:08:37.832Z,100366.50
2023-03-30T06:11:06.910Z,100362.16
2023-03-30T06:13:54.214Z,100361.28
2023-03-30T06:16:21.751Z,100358.63
2023-03-30T06:18:48.761Z,100362.97
2023-03-30T06:21:15.888Z,100349.91
2023-03-30T06:24:01.451Z,100329.03
2023-03-30T06:26:30.878Z,100326.41
2023-03-30T06:28:57.821Z,100323.75
2023-03-30T06:31:25.343Z,100323.75
2023-03-30T06:34:05.274Z,100317.63
2023-03-30T06:36:45.210Z,100310.63
2023-03-30T06:39:14.387Z,100321.00
2023-03-30T06:41:41.817Z,100316.63
2023-03-30T06:44:22.605Z,100311.38
2023-03-30T06:46:50.352Z,100313.09
2023-03-30T06:49:17.356Z,100313.94
2023-03-30T06:51:44.193Z,100310.44
2023-03-30T06:54:11.939Z,100306.94
2023-03-30T06:56:44.986Z,100306.03
2023-03-30T06:59:15.660Z,100304.28
2023-03-30T07:02:14.264Z,100281.66
2023-03-30T07:04:58.030Z,100273.75
2023-03-30T07:07:57.540Z,100265.09
2023-03-30T07:10:25.770Z,100284.13
2023-03-30T07:12:53.892Z,100272.78
2023-03-30T07:15:24.365Z,100275.34
2023-03-30T07:17:51.918Z,100274.44
2023-03-30T07:20:20.372Z,100270.91
2023-03-30T07:23:02.599Z,100282.09
2023-03-30T07:25:30.056Z,100282.00
2023-03-30T07:27:58.281Z,100275.78
2023-03-30T07:30:26.129Z,100280.06
2023-03-30T07:32:59.401Z,100263.41
2023-03-30T07:35:27.065Z,100241.56
2023-03-30T07:38:02.848Z,100238.88
2023-03-30T07:40:34.761Z,100239.78
2023-03-30T07:43:03.819Z,100251.03
2023-03-30T07:45:31.262Z,100240.50
2023-03-30T07:47:58.506Z,100244.78
2023-03-30T07:50:25.735Z,100235.13
2023-03-30T07:52:55.126Z,100243.75
2023-03-30T07:55:22.482Z,100243.63
2023-03-30T07:57:57.106Z,100240.03
2023-03-30T08:00:24.824Z,100232.94
2023-03-30T08:03:15.861Z,100236.31
2023-03-30T08:05:43.844Z,100232.75
2023-03-30T08:08:16.284Z,100221.34
2023-03-30T08:10:43.217Z,100208.28
2023-03-30T08:13:12.353Z,100207.41
2023-03-30T08:15:39.837Z,100210.03
2023-03-30T08:18:08.305Z,100214.38
2023-03-30T08:20:37.874Z,100208.28
2023-03-30T08:23:06.178Z,100208.28
2023-03-30T08:25:33.448Z,100207.41
2023-03-30T08:28:00.769Z,100203.03
2023-03-30T08:30:28.345Z,100208.31
2023-03-30T08:32:55.394Z,100197.75
2023-03-30T08:35:22.406Z,100195.91
2023-03-30T08:37:49.966Z,100191.47
2023-03-30T08:40:22.376Z,100187.84
2023-03-30T08:43:14.541Z,100186.78
2023-03-30T08:45:42.982Z,100197.94
2023-03-30T08:48:35.544Z,100182.09
2023-03-30T08:51:22.884Z,100183.53
2023-03-30T08:54:06.880Z,100196.25
2023-03-30T08:56:49.761Z,100190.72
2023-03-30T08:59:35.750Z,100179.97
2023-03-30T09:02:28.783Z,100184.91
2023-03-30T09:05:03.416Z,100193.34
2023-03-30T09:07:52.394Z,100194.00
2023-03-30T09:10:21.748Z,100182.41
2023-03-30T09:12:52.801Z,100183.09
2023-03-30T09:15:31.239Z,100182.16
2023-03-30T09:18:31.456Z,100174.06
2023-03-30T09:21:06.069Z,100181.78
2023-03-30T09:23:34.288Z,100180.72
2023-03-30T09:26:27.143Z,100170.13
2023-03-30T09:29:19.245Z,100170.06
2023-03-30T09:31:55.924Z,100157.66
2023-03-30T09:34:39.111Z,100153.16
2023-03-30T09:37:22.366Z,100160.81
2023-03-30T09:39:50.819Z,100161.53
2023-03-30T09:42:48.083Z,100158.84
2023-03-30T09:45:20.478Z,100157.84
2023-03-30T09:47:47.400Z,100157.78
2023-03-30T09:50:23.232Z,100141.06
2023-03-30T09:53:07.201Z,100148.91
2023-03-30T09:55:35.894Z,100146.16
2023-03-30T09:58:18.665Z,100134.66
2023-03-30T10:00:46.972Z,100138.00
2023-03-30T10:03:23.257Z,100131.81
2023-03-30T10:06:16.144Z,100135.34
2023-03-30T10:08:44.366Z,100137.00
2023-03-30T10:11:11.588Z,100144.88
2023-03-30T10:13:43.878Z,100133.53
2023-03-30T10:16:28.170Z,100138.91
2023-03-30T10:19:00.862Z,100134.59
2023-03-30T10:21:37.738Z,100135.53
2023-03-30T10:24:22.042Z,100145.25
2023-03-30T10:27:17.070Z,100137.56
2023-03-30T10:29:50.663Z,100146.38
2023-03-30T10:32:32.156Z,100149.06
2023-03-30T10:35:02.021Z,100154.38
2023-03-30T10:37:43.257Z,100147.47
2023-03-30T10:40:32.397Z,100152.81
2023-03-30T10:43:01.035Z,100138.00
2023-03-30T10:45:36.836Z,100148.53
2023-03-30T10:48:27.512Z,100145.97
2023-03-30T10:51:25.844Z,100136.41
2023-03-30T10:54:18.310Z,100141.69
2023-03-30T10:56:52.093Z,100135.59
2023-03-30T10:59:58.609Z,100122.47
2023-03-30T11:02:54.349Z,100127.69
2023-03-30T11:05:32.522Z,100133.72
2023-03-30T11:08:07.468Z,100129.31
2023-03-30T11:10:44.091Z,100112.66
2023-03-30T11:13:27.859Z,100115.72
2023-03-30T11:16:07.185Z,100136.34
2023-03-30T11:18:52.343Z,100132.53
2023-03-30T11:21:33.514Z,100127.75
2023-03-30T11:24:19.419Z,100115.97
2023-03-30T11:27:07.091Z,100114.53
2023-03-30T11:30:17.092Z,100108.66
2023-03-30T11:32:53.652Z,100097.50
2023-03-30T11:35:48.902Z,100092.44
2023-03-30T11:38:21.958Z,100090.97
2023-03-30T11:40:55.998Z,100085.19
2023-03-30T11:43:24.184Z,100090.03
2023-03-30T11:46:19.637Z,100095.91
2023-03-30T11:49:30.325Z,100085.22
2023-03-30T11:52:29.753Z,100085.06
2023-03-30T11:55:47.414Z,100090.09
2023-03-30T11:58:37.635Z,100089.03
2023-03-30T12:01:33.490Z,100078.16
2023-03-30T12:04:17.060Z,100081.44
2023-03-30T12:07:01.768Z,100075.91
2023-03-30T12:09:35.558Z,100078.38
2023-03-30T12:12:20.752Z,100060.59
2023-03-30T12:15:08.750Z,100070.00
2023-03-30T12:18:14.422Z,100066.16
2023-03-30T12:21:09.856Z,100059.66
2023-03-30T12:24:29.616Z,100049.53
2023-03-30T12:27:05.364Z,100035.97
2023-03-30T12:32:29.514Z,100031.72
2023-03-30T12:34:58.356Z,100016.56
2023-03-30T12:37:35.505Z,100028.59
2023-03-30T12:40:08.971Z,100020.66
2023-03-30T12:42:46.843Z,100022.97
2023-03-30T12:45:25.247Z,100017.50
2023-03-30T12:48:17.195Z,100026.28
2023-03-30T12:51:01.495Z,100020.34
2023-03-30T12:54:10.843Z,100017.00
2023-03-30T12:56:54.912Z,100010.97
2023-03-30T12:59:58.818Z,100013.50
2023-03-30T13:03:12.781Z,100022.50
2023-03-30T13:05:43.839Z,100015.56
2023-03-30T13:08:40.745Z,100015.81
2023-03-30T13:11:17.691Z,100001.44
2023-03-30T13:13:48.685Z,100016.09
2023-03-30T13:16:52.103Z,100021.38
2023-03-30T13:19:34.175Z,100017.19
2023-03-30T13:22:12.875Z,100002.53
2023-03-30T13:24:42.824Z,100004.44
2023-03-30T13:27:18.809Z,100006.22
2023-03-30T13:30:08.635Z,100002.66
2023-03-30T13:32:40.297Z,99997.47
2023-03-30T13:35:47.178Z,99993.22
2023-03-30T13:38:57.599Z,99981.06
2023-03-30T13:41:49.315Z,99968.88
2023-03-30T13:44:41.617Z,99978.56
2023-03-30T13:47:42.058Z,99982.19
2023-03-30T13:50:31.220Z,99985.94
2023-03-30T13:53:02.542Z,99993.19
2023-03-30T13:55:35.803Z,100001.28
2023-03-30T13:58:32.557Z,99997.97
2023-03-30T14:01:10.649Z,100001.69
2023-03-30T14:03:43.595Z,100002.69
2023-03-30T14:06:13.526Z,99992.13
2023-03-30T14:08:47.888Z,99966.75
2023-03-30T14:11:40.320Z,99965.16
2023-03-30T14:14:07.672Z,99958.22
2023-03-30T14:16:38.913Z,99960.91
2023-03-30T14:19:28.121Z,99954.97
2023-03-30T14:22:04.703Z,99953.13
2023-03-30T14:24:34.051Z,99946.94
2023-03-30T14:27:15.622Z,99947.88
2023-03-30T14:29:48.636Z,99938.84
2023-03-30T14:32:19.541Z,99944.91
2023-03-30T14:34:48.402Z,99940.50
2023-03-30T14:37:15.604Z,99937.84
2023-03-30T14:39:54.546Z,99931.75
2023-03-30T14:42:25.167Z,99928.19
2023-03-30T14:44:55.890Z,99924.59
2023-03-30T14:47:26.545Z,99917.34
2023-03-30T14:49:58.023Z,99926.91
2023-03-30T14:52:39.885Z,99918.09
2023-03-30T14:55:13.769Z,99923.16
2023-03-30T14:57:44.363Z,99919.41
2023-03-30T15:00:21.194Z,99923.69
2023-03-30T15:03:01.204Z,99931.53
2023-03-30T15:05:40.519Z,99937.63
2023-03-30T15:08:21.007Z,99937.72
2023-03-30T15:10:58.768Z,99947.41
2023-03-30T15:13:40.379Z,99943.88
2023-03-30T15:16:08.075Z,99943.78
2023-03-30T15:18:37.253Z,99938.66
2023-03-30T15:21:04.445Z,99944.59
2023-03-30T15:23:40.995Z,99956.06
2023-03-30T15:26:08.662Z,99972.88
2023-03-30T15:28:48.701Z,99980.00
2023-03-30T15:31:16.556Z,100041.66
2023-03-30T15:33:52.305Z,100042.09
2023-03-30T15:36:25.735Z,100071.91
2023-03-30T15:38:58.794Z,100064.81
2023-03-30T15:41:56.804Z,100070.28
2023-03-30T15:44:24.209Z,100078.06
2023-03-30T15:46:55.657Z,100079.78
2023-03-30T15:49:31.239Z,100079.69
2023-03-30T15:52:02.071Z,100084.72
2023-03-30T15:54:52.085Z,100079.28
2023-03-30T15:57:25.170Z,100079.81
2023-03-30T16:00:01.357Z,100074.91
2023-03-30T16:02:47.564Z,100075.16
2023-03-30T16:05:22.892Z,100080.44
2023-03-30T16:07:49.874Z,100089.22
2023-03-30T16:10:24.739Z,100090.16
2023-03-30T16:12:53.732Z,100089.19
2023-03-30T16:15:27.312Z,100097.94
2023-03-30T16:17:54.272Z,100097.00
2023-03-30T16:20:30.463Z,100102.16
2023-03-30T16:22:57.871Z,100088.97
2023-03-30T16:25:41.617Z,100089.72
2023-03-30T16:28:17.097Z,100085.22
2023-03-30T16:30:47.621Z,100083.41
2023-03-30T16:33:14.507Z,100081.53
2023-03-30T16:35:41.563Z,100083.00
2023-03-30T16:38:14.055Z,100082.84
2023-03-30T16:40:44.183Z,100084.41
2023-03-30T16:43:11.567Z,100080.81
2023-03-30T16:45:38.545Z,100087.63
2023-03-30T16:48:05.928Z,100086.63
2023-03-30T16:50:41.270Z,100084.84
2023-03-30T16:53:09.788Z,100088.38
2023-03-30T16:55:38.726Z,100093.63
2023-03-30T16:58:08.547Z,100084.97
2023-03-30T17:00:42.774Z,100087.53
2023-03-30T17:03:10.125Z,100084.88
2023-03-30T17:05:37.650Z,100081.50
2023-03-30T17:08:10.832Z,100094.53
2023-03-30T17:10:40.872Z,100092.88
2023-03-30T17:13:09.255Z,100093.09
2023-03-30T17:15:38.626Z,100096.69
2023-03-30T17:18:09.141Z,100108.34
2023-03-30T17:20:42.386Z,100113.06
2023-03-30T17:23:10.514Z,100112.53
2023-03-30T17:25:39.848Z,100116.22
2023-03-30T17:28:10.261Z,100110.47
2023-03-30T17:30:40.508Z,100115.00
2023-03-30T17:33:10.703Z,100125.69
2023-03-30T17:35:38.609Z,100116.22
2023-03-30T17:38:09.373Z,100130.44
2023-03-30T17:40:40.838Z,100128.88
2023-03-30T17:43:08.789Z,100132.63
2023-03-30T17:45:37.236Z,100138.06
2023-03-30T17:48:06.739Z,100139.16
2023-03-30T17:50:43.441Z,100135.94
2023-03-30T17:53:17.582Z,100147.41
2023-03-30T17:55:47.439Z,100144.03
2023-03-30T17:58:31.840Z,100147.66
2023-03-30T18:01:01.398Z,100145.13
2023-03-30T18:03:31.582Z,100142.56
2023-03-30T18:06:00.631Z,100139.19
2023-03-30T18:08:28.854Z,100138.38
2023-03-30T18:11:00.722Z,100141.94
2023-03-30T18:13:30.406Z,100138.53
2023-03-30T18:15:59.765Z,100142.94
2023-03-30T18:18:30.496Z,100141.25
2023-03-30T18:21:02.475Z,100157.00
2023-03-30T18:23:31.354Z,100150.06
2023-03-30T18:25:58.241Z,100145.75
2023-03-30T18:28:27.889Z,100154.56
2023-03-30T18:31:00.734Z,100115.81
2023-03-30T18:33:28.002Z,100148.53
2023-03-30T18:35:56.894Z,100163.34
2023-03-30T18:38:25.566Z,100160.75
2023-03-30T18:40:57.420Z,100166.91
2023-03-30T18:43:26.448Z,100167.91
2023-03-30T18:45:54.479Z,100163.59
2023-03-30T18:48:21.835Z,100168.78
2023-03-30T18:50:53.945Z,100168.81
2023-03-30T18:53:23.916Z,100161.94
2023-03-30T18:55:54.204Z,100175.00
2023-03-30T18:58:27.275Z,100180.28
2023-03-30T19:00:55.734Z,100182.09
2023-03-30T19:03:24.247Z,100182.03
2023-03-30T19:05:51.580Z,100181.22
2023-03-30T19:08:21.607Z,100181.22
2023-03-30T19:10:52.210Z,100187.34
2023-03-30T19:13:21.204Z,100186.50
2023-03-30T19:15:50.432Z,100196.13
2023-03-30T19:18:17.915Z,100195.22
2023-03-30T19:20:44.933Z,100200.53
2023-03-30T19:23:14.655Z,100197.94
2023-03-30T19:25:43.355Z,100204.03
2023-03-30T19:28:11.741Z,100192.69
2023-03-30T19:30:39.838Z,100189.22
2023-03-30T19:33:12.214Z,100172.63
2023-03-30T19:35:44.224Z,100176.19
2023-03-30T19:38:11.676Z,100180.59
2023-03-30T19:40:40.417Z,100182.38
2023-03-30T19:43:07.695Z,100190.34
2023-03-30T19:45:34.682Z,100191.38
2023-03-30T19:48:01.674Z,100188.81
2023-03-30T19:50:30.230Z,100193.28
2023-03-30T19:52:58.637Z,100188.19
2023-03-30T19:55:25.783Z,100197.88
2023-03-30T19:57:52.716Z,100197.06
2023-03-30T20:00:21.943Z,100189.25
2023-03-30T20:02:51.818Z,100205.09
2023-03-30T20:05:20.940Z,100193.78
2023-03-30T20:07:49.037Z,100198.19
2023-03-30T20:10:21.126Z,100196.53
2023-03-30T20:12:49.492Z,100207.06
2023-03-30T20:15:17.346Z,100189.63
2023-03-30T20:17:44.767Z,100183.59
2023-03-30T20:20:16.982Z,100175.81
2023-03-30T20:22:45.020Z,100173.19
2023-03-30T20:25:14.186Z,100176.69
2023-03-30T20:27:41.420Z,100181.91
2023-03-30T20:30:09.654Z,100188.97
2023-03-30T20:32:36.551Z,100186.34
2023-03-30T20:35:05.184Z,100200.31
2023-03-30T20:37:32.202Z,100206.38
2023-03-30T20:40:03.535Z,100201.25
2023-03-30T20:42:33.836Z,100211.81
2023-03-30T20:45:01.210Z,100204.03
2023-03-30T20:47:30.183Z,100206.69
2023-03-30T20:49:58.262Z,100214.56
2023-03-30T20:52:25.702Z,100200.63
2023-03-30T20:54:52.763Z,100210.22
2023-03-30T20:57:21.440Z,100206.75
2023-03-30T20:59:49.947Z,100193.69
2023-03-30T21:02:17.555Z,100192.91
2023-03-30T21:04:44.826Z,100196.34
2023-03-30T21:07:12.381Z,100196.38
2023-03-30T21:09:39.741Z,100201.66
2023-03-30T21:12:09.625Z,100196.44
2023-03-30T21:14:36.696Z,100198.19
2023-03-30T21:17:04.265Z,100200.81
2023-03-30T21:19:31.270Z,100198.19
2023-03-30T21:22:00.178Z,100193.88
2023-03-30T21:24:27.496Z,100194.78
2023-03-30T21:26:54.381Z,100192.22
2023-03-30T21:29:22.592Z,100190.53
2023-03-30T21:31:50.079Z,100194.06
2023-03-30T21:34:18.643Z,100189.72
2023-03-30T21:36:45.942Z,100194.06
2023-03-30T21:39:13.036Z,100186.25
2023-03-30T21:41:40.010Z,100189.75
2023-03-30T21:44:07.613Z,100196.75
2023-03-30T21:46:34.659Z,100191.53
2023-03-30T21:49:01.567Z,100193.28
2023-03-30T21:51:30.335Z,100193.34
2023-03-30T21:53:58.396Z,100189.88
2023-03-30T21:56:29.456Z,100187.22
2023-03-30T21:58:56.942Z,100185.50
2023-03-30T22:01:24.423Z,100180.28
2023-03-30T22:03:52.911Z,100181.16
2023-03-30T22:06:20.527Z,100178.56
2023-03-30T22:08:47.445Z,100170.84
2023-03-30T22:11:21.000Z,100185.63
2023-03-30T22:13:48.993Z,100183.91
2023-03-30T22:16:31.166Z,100174.41
2023-03-30T22:18:58.069Z,100167.47
2023-03-30T22:21:33.988Z,100161.41
2023-03-30T22:24:02.918Z,100158.00
2023-03-30T22:26:29.856Z,100161.53
2023-03-30T22:28:57.126Z,100164.19
2023-03-30T22:31:24.102Z,100153.78
2023-03-30T22:33:52.837Z,100157.38
2023-03-30T22:36:26.219Z,100159.97
2023-03-30T22:38:53.348Z,100153.97
2023-03-30T22:41:24.399Z,100147.97
2023-03-30T22:43:57.014Z,100148.78
2023-03-30T22:46:25.976Z,100140.94
2023-03-30T22:48:55.334Z,100134.94
2023-03-30T22:51:28.851Z,100139.25
2023-03-30T22:53:58.243Z,100146.22
2023-03-30T22:56:27.261Z,100130.59
2023-03-30T22:58:54.261Z,100144.47
2023-03-30T23:01:21.517Z,100134.06
2023-03-30T23:03:48.721Z,100130.59
2023-03-30T23:06:18.943Z,100125.38
2023-03-30T23:08:48.295Z,100126.28
2023-03-30T23:11:16.041Z,100121.03
2023-03-30T23:13:42.949Z,100126.28
2023-03-30T23:16:10.550Z,100121.97
2023-03-30T23:18:37.577Z,100121.09
2023-03-30T23:21:06.960Z,100115.88
2023-03-30T23:23:36.234Z,100117.59
2023-03-30T23:26:09.920Z,100115.88
2023-03-30T23:28:40.301Z,100112.44
2023-03-30T23:31:17.454Z,100102.88
2023-03-30T23:33:44.643Z,100105.50
2023-03-30T23:36:16.949Z,100109.88
2023-03-30T23:38:44.400Z,100102.03
2023-03-30T23:41:17.359Z,100095.09
2023-03-30T23:43:44.471Z,100094.16
2023-03-30T23:46:12.290Z,100099.38
2023-03-30T23:48:39.833Z,100100.22
2023-03-30T23:51:07.482Z,100100.28
2023-03-30T23:53:34.488Z,100101.13
2023-03-30T23:56:06.171Z,100087.22
2023-03-30T23:58:33.389Z,100079.44
